Massillon, Iowa
Current Conditions -  °F | °C
As of 11:52 PM on Friday 19 Dec 2014 (Local Time) from KDVN Reporting Station
Overcast Overcast  
Wind Chill: 22°   Ceiling: 3900
Heat Index: 28°   Visibility: 9mi
Dew Point: 22°   Wind: 6mph
Humidity: 78%   Direction: 150°SSE
Pressure: 30.26"   Gusts: NA
Location:  41.8589°N, 90.9568°W
Report Text: KDVN 200552Z AUTO 15005KT 9SM OVC039 M02/M06 A3026 RMK AO2 SLP257 T10221056 11022 21039 410061106 51001
Loading
Personal Weather Stations






























Interactive Weather Map New forecast layout! Learn more

10-Day Weather Forecast

Advertisements
Track Severe Weather on mobile